Time;durP1;ratioP1;P1;durP2;ratioP2;P2;SDS_P1;SDS_P2;PMS_P1;PMS_P2;Temp;Humidity;BMP_temperature;BMP_pressure;BME280_temperature;BME280_humidity;BME280_pressure;Samples;Min_cycle;Max_cycle;Signal;HPM_P1;HPM_P2
2021/04/26 00:01:52;;;;;;;3.70;1.92;;;;;;;;;;5133814;27;20512;-83
2021/04/26 00:04:18;;;;;;;5.03;1.95;;;;;;;;;;5132631;27;20031;-83
2021/04/26 00:06:44;;;;;;;4.82;2.42;;;;;;;;;;5115443;27;20035;-83
2021/04/26 00:09:10;;;;;;;5.40;2.17;;;;;;;;;;5131750;27;20092;-83
2021/04/26 00:11:36;;;;;;;4.07;2.63;;;;;;;;;;5115420;27;20120;-83
2021/04/26 00:14:02;;;;;;;7.72;2.30;;;;;;;;;;5133614;27;20038;-83
2021/04/26 00:16:28;;;;;;;5.05;2.25;;;;;;;;;;5133520;27;20109;-83
2021/04/26 00:18:54;;;;;;;4.00;1.98;;;;;;;;;;5133545;27;20062;-83
2021/04/26 00:21:21;;;;;;;4.93;2.08;;;;;;;;;;5132320;27;20134;-83
2021/04/26 00:23:47;;;;;;;4.55;1.98;;;;;;;;;;5132377;27;20172;-84
2021/04/26 00:26:13;;;;;;;7.10;2.45;;;;;;;;;;5133551;27;20062;-84
2021/04/26 00:28:39;;;;;;;6.38;2.05;;;;;;;;;;5132331;27;20061;-84
2021/04/26 00:31:05;;;;;;;4.18;1.70;;;;;;;;;;5133472;27;20046;-83
2021/04/26 00:33:31;;;;;;;5.28;2.28;;;;;;;;;;5132122;27;20035;-83
2021/04/26 00:35:57;;;;;;;4.57;2.15;;;;;;;;;;5131814;27;20046;-83
2021/04/26 00:38:23;;;;;;;7.25;2.45;;;;;;;;;;5133383;27;20043;-84
2021/04/26 00:40:49;;;;;;;4.05;1.75;;;;;;;;;;5132055;27;20058;-83
2021/04/26 00:43:15;;;;;;;7.50;2.40;;;;;;;;;;5132230;27;20035;-83
2021/04/26 00:45:41;;;;;;;6.80;2.03;;;;;;;;;;5098331;27;20043;-83
2021/04/26 00:48:07;;;;;;;7.20;2.40;;;;;;;;;;5133033;27;20087;-82
2021/04/26 00:50:33;;;;;;;5.03;2.30;;;;;;;;;;5133081;27;20104;-83
2021/04/26 00:53:02;;;;;;;5.55;2.33;;;;;;;;;;5114982;28;20409;-83
2021/04/26 00:55:28;;;;;;;5.75;2.15;;;;;;;;;;5131977;28;20042;-83
2021/04/26 00:57:55;;;;;;;3.30;1.80;;;;;;;;;;5114876;28;20497;-82
2021/04/26 01:00:21;;;;;;;6.30;2.25;;;;;;;;;;5131879;28;20028;-83
2021/04/26 01:02:47;;;;;;;10.18;2.30;;;;;;;;;;5132934;27;20043;-83
2021/04/26 01:05:15;;;;;;;7.25;2.58;;;;;;;;;;5132084;28;20046;-83
2021/04/26 01:07:41;;;;;;;5.30;2.05;;;;;;;;;;5132898;27;20039;-83
2021/04/26 01:10:07;;;;;;;3.58;2.20;;;;;;;;;;5131860;28;20270;-82
2021/04/26 01:12:45;;;;;;;7.68;3.20;;;;;;;;;;5131861;28;20043;-83
2021/04/26 01:15:17;;;;;;;5.35;2.30;;;;;;;;;;5133010;27;20035;-82
2021/04/26 01:17:45;;;;;;;4.07;2.40;;;;;;;;;;5133171;27;20035;-82
2021/04/26 01:20:29;;;;;;;5.95;2.78;;;;;;;;;;5133140;27;20039;-82
2021/04/26 01:23:15;;;;;;;5.05;2.25;;;;;;;;;;5136953;27;20047;-82
2021/04/26 01:25:42;;;;;;;3.67;2.38;;;;;;;;;;5135747;27;20092;-82
2021/04/26 01:28:23;;;;;;;5.45;2.30;;;;;;;;;;5135621;27;20070;-82
2021/04/26 01:30:49;;;;;;;6.60;2.65;;;;;;;;;;5137006;27;20031;-82
2021/04/26 01:33:17;;;;;;;3.80;2.22;;;;;;;;;;5135707;27;20046;-83
2021/04/26 01:35:43;;;;;;;2.83;1.90;;;;;;;;;;5118366;27;20042;-83
2021/04/26 01:38:14;;;;;;;4.15;1.95;;;;;;;;;;5135329;27;20043;-83
2021/04/26 01:40:42;;;;;;;5.25;2.05;;;;;;;;;;5118233;27;20096;-83
2021/04/26 01:43:08;;;;;;;5.70;2.10;;;;;;;;;;5135236;27;20358;-83
2021/04/26 01:45:34;;;;;;;3.92;1.98;;;;;;;;;;5135357;27;20027;-83
2021/04/26 01:48:00;;;;;;;3.10;1.92;;;;;;;;;;5118264;27;20041;-83
2021/04/26 01:50:26;;;;;;;4.00;1.70;;;;;;;;;;5118431;27;20077;-83
2021/04/26 01:52:53;;;;;;;3.65;1.90;;;;;;;;;;5118107;27;20119;-83
2021/04/26 01:55:19;;;;;;;3.90;2.20;;;;;;;;;;5118186;27;20060;-83
2021/04/26 01:57:46;;;;;;;3.70;1.70;;;;;;;;;;5136548;27;20027;-83
2021/04/26 02:00:19;;;;;;;3.35;2.50;;;;;;;;;;5135111;27;20031;-83
2021/04/26 02:02:45;;;;;;;5.07;2.15;;;;;;;;;;5135155;27;20043;-83
2021/04/26 02:05:12;;;;;;;3.35;2.22;;;;;;;;;;5134965;27;20066;-83
2021/04/26 02:07:38;;;;;;;4.72;2.30;;;;;;;;;;5117776;27;20042;-83
2021/04/26 02:10:05;;;;;;;3.58;2.10;;;;;;;;;;5117882;27;20027;-83
2021/04/26 02:12:31;;;;;;;3.78;2.20;;;;;;;;;;5134998;27;20101;-83
2021/04/26 02:14:57;;;;;;;4.75;2.40;;;;;;;;;;5134824;27;20396;-83
2021/04/26 02:17:23;;;;;;;3.95;2.13;;;;;;;;;;5135892;27;20362;-83
2021/04/26 02:19:49;;;;;;;4.00;2.00;;;;;;;;;;5134534;27;20035;-82
2021/04/26 02:22:15;;;;;;;2.17;1.80;;;;;;;;;;5134694;27;20050;-82
2021/04/26 02:24:42;;;;;;;3.15;1.50;;;;;;;;;;5135831;27;20039;-83
2021/04/26 02:27:08;;;;;;;3.00;1.58;;;;;;;;;;5134515;27;20046;-83
2021/04/26 02:29:34;;;;;;;3.50;1.60;;;;;;;;;;5134427;27;20066;-82
2021/04/26 02:32:02;;;;;;;3.38;1.75;;;;;;;;;;5133613;27;20478;-83
2021/04/26 02:34:31;;;;;;;2.70;1.98;;;;;;;;;;5134332;27;20066;-83
2021/04/26 02:37:16;;;;;;;3.25;1.70;;;;;;;;;;5134158;27;20056;-83
2021/04/26 02:39:42;;;;;;;2.95;1.67;;;;;;;;;;5134393;27;20046;-83
2021/04/26 02:42:08;;;;;;;3.03;2.53;;;;;;;;;;5134119;27;20035;-83
2021/04/26 02:44:34;;;;;;;2.03;1.27;;;;;;;;;;5134266;27;20043;-83
2021/04/26 02:47:02;;;;;;;2.25;1.70;;;;;;;;;;5133955;27;20039;-82
2021/04/26 02:49:28;;;;;;;3.90;1.50;;;;;;;;;;5134262;27;20067;-82
2021/04/26 02:51:55;;;;;;;2.03;1.40;;;;;;;;;;5135343;27;20110;-82
2021/04/26 02:54:21;;;;;;;1.80;1.40;;;;;;;;;;5134102;27;20039;-82
2021/04/26 02:56:47;;;;;;;3.13;1.30;;;;;;;;;;5134001;27;20039;-82
2021/04/26 02:59:19;;;;;;;3.88;1.35;;;;;;;;;;5134159;27;20035;-82
2021/04/26 03:01:45;;;;;;;2.05;1.35;;;;;;;;;;5135060;27;20039;-82
2021/04/26 03:04:11;;;;;;;1.90;1.38;;;;;;;;;;5116767;27;20081;-82
2021/04/26 03:06:37;;;;;;;1.50;1.40;;;;;;;;;;5134880;27;20070;-82
2021/04/26 03:09:03;;;;;;;3.17;2.00;;;;;;;;;;5116677;27;20072;-83
2021/04/26 03:11:29;;;;;;;4.78;1.77;;;;;;;;;;5133626;27;20084;-82
2021/04/26 03:13:55;;;;;;;4.50;2.00;;;;;;;;;;5134810;27;20558;-82
2021/04/26 03:16:21;;;;;;;2.55;1.63;;;;;;;;;;5133481;27;20043;-83
2021/04/26 03:18:47;;;;;;;5.88;2.35;;;;;;;;;;5134936;27;20046;-82
2021/04/26 03:21:13;;;;;;;4.80;2.40;;;;;;;;;;5116419;27;20447;-82
2021/04/26 03:23:39;;;;;;;4.15;2.28;;;;;;;;;;5116531;27;20118;-82
2021/04/26 03:26:06;;;;;;;4.53;2.38;;;;;;;;;;5133300;27;20043;-82
2021/04/26 03:28:33;;;;;;;3.78;1.92;;;;;;;;;;5134532;27;20118;-82
2021/04/26 03:31:00;;;;;;;4.78;2.25;;;;;;;;;;5133288;27;20443;-82
2021/04/26 03:33:26;;;;;;;4.32;2.20;;;;;;;;;;5133296;27;20076;-82
2021/04/26 03:35:55;;;;;;;2.85;1.85;;;;;;;;;;5134156;27;20055;-82
2021/04/26 03:38:21;;;;;;;2.70;1.88;;;;;;;;;;5133333;27;20035;-82
2021/04/26 03:40:47;;;;;;;4.32;1.77;;;;;;;;;;5133311;27;20088;-82
2021/04/26 03:43:14;;;;;;;5.55;2.10;;;;;;;;;;5132001;27;20423;-82
2021/04/26 03:45:40;;;;;;;4.25;1.88;;;;;;;;;;5132870;27;20067;-83
2021/04/26 03:48:06;;;;;;;4.13;1.70;;;;;;;;;;5132952;27;20039;-82
2021/04/26 03:50:32;;;;;;;4.80;1.50;;;;;;;;;;5133010;27;20042;-83
2021/04/26 03:52:58;;;;;;;2.03;1.30;;;;;;;;;;5132949;27;20043;-82
2021/04/26 03:55:24;;;;;;;2.47;1.20;;;;;;;;;;5132870;27;20390;-83
2021/04/26 03:57:50;;;;;;;2.15;1.30;;;;;;;;;;5132715;27;20495;-83
2021/04/26 04:00:17;;;;;;;2.25;1.50;;;;;;;;;;5132701;27;20035;-82
2021/04/26 04:02:43;;;;;;;2.33;1.10;;;;;;;;;;5133782;27;20088;-82
2021/04/26 04:05:09;;;;;;;4.28;1.90;;;;;;;;;;5115625;27;20039;-82
2021/04/26 04:07:35;;;;;;;3.80;2.08;;;;;;;;;;5115631;27;20058;-82
2021/04/26 04:10:01;;;;;;;3.97;1.90;;;;;;;;;;5133761;27;20031;-83
2021/04/26 04:12:27;;;;;;;2.75;1.52;;;;;;;;;;5133656;27;20043;-82
2021/04/26 04:14:53;;;;;;;4.57;1.40;;;;;;;;;;5133773;27;20096;-83
2021/04/26 04:17:20;;;;;;;2.10;1.35;;;;;;;;;;5133765;27;20107;-83
2021/04/26 04:19:46;;;;;;;6.07;1.77;;;;;;;;;;5133687;27;20039;-83
2021/04/26 04:22:12;;;;;;;3.33;1.60;;;;;;;;;;5132359;27;20043;-82
2021/04/26 04:24:38;;;;;;;3.53;1.50;;;;;;;;;;5132374;27;20554;-82
2021/04/26 04:27:05;;;;;;;1.80;1.40;;;;;;;;;;5132149;27;20520;-81
2021/04/26 04:29:31;;;;;;;3.30;1.65;;;;;;;;;;5115273;27;20062;-82
2021/04/26 04:31:57;;;;;;;2.47;1.30;;;;;;;;;;5132234;27;20071;-82
2021/04/26 04:34:23;;;;;;;4.45;2.53;;;;;;;;;;5133411;27;20036;-82
2021/04/26 04:36:49;;;;;;;3.35;2.00;;;;;;;;;;5133294;27;20051;-81
2021/04/26 04:39:15;;;;;;;2.13;1.40;;;;;;;;;;5133360;27;20416;-82
2021/04/26 04:41:41;;;;;;;2.88;1.42;;;;;;;;;;5133211;27;20027;-81
2021/04/26 04:44:07;;;;;;;4.38;1.65;;;;;;;;;;5133363;27;20057;-82
2021/04/26 04:46:33;;;;;;;5.50;1.60;;;;;;;;;;5114987;27;20506;-82
2021/04/26 04:48:59;;;;;;;2.20;1.60;;;;;;;;;;5132072;27;20211;-82
2021/04/26 04:51:25;;;;;;;2.72;1.58;;;;;;;;;;5131994;28;20039;-82
2021/04/26 04:53:53;;;;;;;3.42;1.73;;;;;;;;;;5132126;28;20050;-85
2021/04/26 04:56:19;;;;;;;4.53;2.50;;;;;;;;;;5114743;28;20067;-81
2021/04/26 04:58:45;;;;;;;3.85;1.60;;;;;;;;;;5133138;27;20163;-82
2021/04/26 05:01:11;;;;;;;3.22;1.67;;;;;;;;;;5133059;27;20086;-83
2021/04/26 05:03:37;;;;;;;4.97;1.75;;;;;;;;;;5131772;28;20054;-83
2021/04/26 05:06:03;;;;;;;6.95;1.80;;;;;;;;;;5131856;28;20039;-83
2021/04/26 05:08:29;;;;;;;5.40;1.90;;;;;;;;;;5132945;27;20035;-82
2021/04/26 05:10:55;;;;;;;3.22;1.35;;;;;;;;;;5131830;28;20039;-82
2021/04/26 05:13:23;;;;;;;5.38;2.03;;;;;;;;;;5133088;27;20084;-82
2021/04/26 05:15:49;;;;;;;4.78;2.17;;;;;;;;;;5114781;28;20051;-82
2021/04/26 05:18:15;;;;;;;5.15;1.80;;;;;;;;;;5114666;28;20062;-81
2021/04/26 05:20:41;;;;;;;7.55;1.83;;;;;;;;;;5131903;28;20115;-81
2021/04/26 05:23:07;;;;;;;5.75;2.22;;;;;;;;;;5132785;27;20071;-81
2021/04/26 05:25:33;;;;;;;2.95;1.65;;;;;;;;;;5131594;28;20052;-82
2021/04/26 05:28:00;;;;;;;4.95;1.95;;;;;;;;;;5131602;28;20035;-82
2021/04/26 05:30:29;;;;;;;6.40;1.70;;;;;;;;;;5132860;27;20096;-81
2021/04/26 05:32:55;;;;;;;6.47;2.20;;;;;;;;;;5115077;28;20043;-84
2021/04/26 05:35:21;;;;;;;3.35;1.80;;;;;;;;;;5131754;28;20510;-82
2021/04/26 05:37:47;;;;;;;3.67;1.80;;;;;;;;;;5131267;28;20055;-81
2021/04/26 05:40:14;;;;;;;3.70;1.73;;;;;;;;;;5132768;27;20035;-81
2021/04/26 05:42:40;;;;;;;5.25;1.58;;;;;;;;;;5131569;28;20038;-83
2021/04/26 05:45:06;;;;;;;3.20;1.98;;;;;;;;;;5131412;28;20490;-82
2021/04/26 05:47:32;;;;;;;3.88;1.85;;;;;;;;;;5132640;27;20035;-83
2021/04/26 05:49:58;;;;;;;5.70;1.83;;;;;;;;;;5131458;28;20035;-83
2021/04/26 05:52:25;;;;;;;6.63;2.28;;;;;;;;;;5131422;28;20070;-84
2021/04/26 05:54:51;;;;;;;4.55;1.73;;;;;;;;;;5131462;28;20038;-83
2021/04/26 05:57:17;;;;;;;2.83;1.63;;;;;;;;;;5132461;27;20043;-83
2021/04/26 05:59:43;;;;;;;4.30;1.80;;;;;;;;;;5131373;28;20122;-84
2021/04/26 06:02:09;;;;;;;4.38;2.13;;;;;;;;;;5131275;28;20155;-84
2021/04/26 06:04:35;;;;;;;7.22;2.45;;;;;;;;;;5132529;28;20131;-83
2021/04/26 06:07:01;;;;;;;4.85;1.90;;;;;;;;;;5132033;27;20066;-84
2021/04/26 06:09:27;;;;;;;5.72;1.70;;;;;;;;;;5134950;27;20466;-84
2021/04/26 06:11:53;;;;;;;3.72;1.70;;;;;;;;;;5134985;27;20035;-84
2021/04/26 06:14:19;;;;;;;5.40;1.88;;;;;;;;;;5134892;27;20054;-83
2021/04/26 06:16:45;;;;;;;4.13;1.98;;;;;;;;;;5135879;27;20031;-81
2021/04/26 06:19:11;;;;;;;5.13;1.85;;;;;;;;;;5135939;27;20035;-81
2021/04/26 06:21:37;;;;;;;3.67;1.50;;;;;;;;;;5135849;27;20569;-82
2021/04/26 06:24:03;;;;;;;4.50;1.88;;;;;;;;;;5135753;27;20053;-83
2021/04/26 06:26:29;;;;;;;5.68;1.88;;;;;;;;;;5135675;27;20039;-83
2021/04/26 06:28:56;;;;;;;4.80;1.83;;;;;;;;;;5135852;27;20088;-83
2021/04/26 06:31:22;;;;;;;5.13;1.85;;;;;;;;;;5135793;27;20035;-83
2021/04/26 06:33:48;;;;;;;4.65;1.70;;;;;;;;;;5135634;27;20045;-83
2021/04/26 06:36:14;;;;;;;2.88;1.27;;;;;;;;;;5135330;27;20134;-83
2021/04/26 06:38:40;;;;;;;6.05;1.40;;;;;;;;;;5134398;27;20125;-82
2021/04/26 06:41:06;;;;;;;3.72;1.00;;;;;;;;;;5117307;27;20573;-82
2021/04/26 06:43:32;;;;;;;6.65;1.77;;;;;;;;;;5134192;27;20114;-82
2021/04/26 06:45:58;;;;;;;4.85;1.50;;;;;;;;;;5134280;27;20036;-82
2021/04/26 06:48:24;;;;;;;4.15;1.30;;;;;;;;;;5135552;27;20042;-81
2021/04/26 06:50:50;;;;;;;6.45;1.38;;;;;;;;;;5135220;27;20115;-82
2021/04/26 06:53:16;;;;;;;4.43;1.25;;;;;;;;;;5134105;27;20042;-82
2021/04/26 06:55:42;;;;;;;7.90;1.60;;;;;;;;;;5134113;27;20439;-82
2021/04/26 06:58:08;;;;;;;6.07;1.60;;;;;;;;;;5135041;27;20170;-82
2021/04/26 07:00:34;;;;;;;6.53;1.75;;;;;;;;;;5134041;27;20034;-81
2021/04/26 07:03:00;;;;;;;3.92;1.52;;;;;;;;;;5135036;27;20039;-82
2021/04/26 07:05:27;;;;;;;7.13;1.50;;;;;;;;;;5133896;27;20035;-82
2021/04/26 07:07:53;;;;;;;12.48;2.03;;;;;;;;;;5133708;27;20383;-82
2021/04/26 07:10:19;;;;;;;3.53;1.65;;;;;;;;;;5116698;27;20039;-82
2021/04/26 07:12:45;;;;;;;5.85;1.58;;;;;;;;;;5134881;27;20049;-82
2021/04/26 07:15:12;;;;;;;6.05;1.65;;;;;;;;;;5133698;27;20035;-83
2021/04/26 07:17:38;;;;;;;6.70;1.98;;;;;;;;;;5134316;27;20038;-84
2021/04/26 07:20:04;;;;;;;5.45;1.40;;;;;;;;;;5133255;27;20035;-84
2021/04/26 07:22:30;;;;;;;3.92;1.40;;;;;;;;;;5116156;27;20035;-83
2021/04/26 07:24:56;;;;;;;3.65;1.58;;;;;;;;;;5133420;27;20541;-84
2021/04/26 07:27:22;;;;;;;3.83;1.60;;;;;;;;;;5134354;27;20071;-83
2021/04/26 07:29:49;;;;;;;3.50;1.30;;;;;;;;;;5134522;27;20039;-83
2021/04/26 07:32:15;;;;;;;2.97;1.63;;;;;;;;;;5134559;27;20035;-83
2021/04/26 07:34:41;;;;;;;4.82;1.30;;;;;;;;;;5134074;27;20031;-85
2021/04/26 07:37:07;;;;;;;4.25;1.30;;;;;;;;;;5134126;27;20055;-85
2021/04/26 07:39:33;;;;;;;4.50;1.88;;;;;;;;;;5133266;27;20035;-82
2021/04/26 07:41:59;;;;;;;5.13;1.15;;;;;;;;;;5133140;27;20538;-83
2021/04/26 07:44:28;;;;;;;4.13;1.40;;;;;;;;;;5133255;27;20039;-83
2021/04/26 07:46:55;;;;;;;3.75;1.27;;;;;;;;;;5133185;27;20291;-83
2021/04/26 07:49:21;;;;;;;4.28;1.08;;;;;;;;;;5132928;27;20031;-84
2021/04/26 07:51:47;;;;;;;5.45;1.33;;;;;;;;;;5132833;27;20512;-82
2021/04/26 07:54:13;;;;;;;3.42;1.20;;;;;;;;;;5134058;27;20035;-82
2021/04/26 07:56:39;;;;;;;4.55;1.33;;;;;;;;;;5132792;27;20039;-82
2021/04/26 07:59:05;;;;;;;3.38;1.30;;;;;;;;;;5133902;27;20118;-82
2021/04/26 08:01:31;;;;;;;6.32;1.20;;;;;;;;;;5133911;27;20114;-82
2021/04/26 08:03:57;;;;;;;4.60;1.38;;;;;;;;;;5132763;27;20114;-82
2021/04/26 08:06:23;;;;;;;3.88;1.60;;;;;;;;;;5133823;27;20506;-85
2021/04/26 08:08:49;;;;;;;3.42;0.90;;;;;;;;;;5132603;27;20031;-82
2021/04/26 08:11:15;;;;;;;3.88;1.00;;;;;;;;;;5115396;27;20031;-82
2021/04/26 08:13:41;;;;;;;4.00;1.10;;;;;;;;;;5133702;27;20127;-84
2021/04/26 08:16:07;;;;;;;3.78;1.08;;;;;;;;;;5132238;27;20168;-83
2021/04/26 08:18:33;;;;;;;2.20;0.88;;;;;;;;;;5132468;27;20039;-82
2021/04/26 08:21:00;;;;;;;0.90;0.80;;;;;;;;;;5133838;27;20470;-83
2021/04/26 08:23:26;;;;;;;1.25;0.85;;;;;;;;;;5132437;27;20039;-86
2021/04/26 08:25:52;;;;;;;2.45;1.10;;;;;;;;;;5132264;27;20044;-86
2021/04/26 08:28:19;;;;;;;2.58;1.02;;;;;;;;;;5132380;27;20039;-86
2021/04/26 08:30:48;;;;;;;3.38;1.13;;;;;;;;;;5131473;27;20046;-83
2021/04/26 08:33:14;;;;;;;3.47;0.95;;;;;;;;;;5115117;27;20039;-83
2021/04/26 08:35:40;;;;;;;3.35;1.13;;;;;;;;;;5133183;27;20112;-84
2021/04/26 08:38:06;;;;;;;2.88;1.20;;;;;;;;;;5132098;27;20035;-84
2021/04/26 08:40:32;;;;;;;3.92;0.90;;;;;;;;;;5132164;27;20045;-84
2021/04/26 08:43:05;;;;;;;1.90;1.10;;;;;;;;;;5132154;27;20035;-84
2021/04/26 08:45:31;;;;;;;1.42;1.00;;;;;;;;;;5133175;27;20062;-87
2021/04/26 08:47:57;;;;;;;3.25;1.35;;;;;;;;;;5115076;27;20035;-85
2021/04/26 08:50:25;;;;;;;3.40;1.08;;;;;;;;;;5131950;27;20031;-84
2021/04/26 08:52:51;;;;;;;2.72;0.93;;;;;;;;;;5133055;27;20043;-84
2021/04/26 08:55:18;;;;;;;3.75;1.13;;;;;;;;;;5131921;28;20035;-84
2021/04/26 08:57:44;;;;;;;2.35;1.20;;;;;;;;;;5114968;28;20087;-83
2021/04/26 09:00:11;;;;;;;2.40;1.30;;;;;;;;;;5132978;27;20114;-84
2021/04/26 09:02:43;;;;;;;3.90;1.20;;;;;;;;;;5132977;27;20035;-84
2021/04/26 09:05:10;;;;;;;2.03;1.05;;;;;;;;;;5133100;27;20039;-87
2021/04/26 09:07:36;;;;;;;3.05;1.27;;;;;;;;;;5131731;28;20062;-86
2021/04/26 09:10:02;;;;;;;3.53;1.25;;;;;;;;;;5133106;27;20058;-86
2021/04/26 09:12:28;;;;;;;2.42;1.10;;;;;;;;;;5114574;28;20179;-86
2021/04/26 09:14:58;;;;;;;2.35;1.30;;;;;;;;;;5114841;28;20138;-85
2021/04/26 09:17:37;;;;;;;3.53;1.15;;;;;;;;;;5132607;28;20077;-86
2021/04/26 09:20:18;;;;;;;1.55;1.10;;;;;;;;;;5114659;28;20496;-91
2021/04/26 09:22:57;;;;;;;2.90;1.10;;;;;;;;;;5131454;28;20039;-85
2021/04/26 09:25:27;;;;;;;2.40;0.98;;;;;;;;;;5129992;28;20110;-82
2021/04/26 09:27:54;;;;;;;2.50;1.38;;;;;;;;;;5130240;28;20055;-83
2021/04/26 09:30:41;;;;;;;3.33;1.10;;;;;;;;;;5131621;27;20035;-84
2021/04/26 09:33:27;;;;;;;2.78;1.38;;;;;;;;;;5114451;28;20051;-83
2021/04/26 09:35:57;;;;;;;1.25;1.05;;;;;;;;;;5131545;27;20559;-84
2021/04/26 09:38:23;;;;;;;2.92;1.05;;;;;;;;;;5130097;28;20043;-83
2021/04/26 09:41:10;;;;;;;1.60;1.20;;;;;;;;;;5131073;27;20088;-82
2021/04/26 09:43:36;;;;;;;2.67;1.20;;;;;;;;;;5135042;27;20039;-82
2021/04/26 09:46:02;;;;;;;4.82;1.58;;;;;;;;;;5135406;27;20466;-83
2021/04/26 09:48:29;;;;;;;2.40;1.38;;;;;;;;;;5136617;27;20042;-83
2021/04/26 09:50:55;;;;;;;2.53;1.15;;;;;;;;;;5135243;27;20035;-83
2021/04/26 09:53:22;;;;;;;2.45;1.38;;;;;;;;;;5136295;27;20409;-83
2021/04/26 09:55:48;;;;;;;3.20;1.10;;;;;;;;;;5118005;27;20062;-83
2021/04/26 09:58:14;;;;;;;3.92;1.10;;;;;;;;;;5135881;27;20118;-82
2021/04/26 10:00:43;;;;;;;2.35;0.95;;;;;;;;;;5134870;27;20042;-83
2021/04/26 10:03:09;;;;;;;3.03;1.17;;;;;;;;;;5118261;27;20039;-83
2021/04/26 10:05:36;;;;;;;2.72;1.00;;;;;;;;;;5134915;27;20047;-83
2021/04/26 10:08:02;;;;;;;1.50;0.90;;;;;;;;;;5136112;27;20067;-83
2021/04/26 10:10:28;;;;;;;3.83;0.95;;;;;;;;;;5136675;27;20039;-84
2021/04/26 10:12:54;;;;;;;1.27;0.95;;;;;;;;;;5134864;27;20039;-83
2021/04/26 10:15:26;;;;;;;2.50;1.20;;;;;;;;;;5134677;27;20039;-83
2021/04/26 10:17:52;;;;;;;1.67;1.10;;;;;;;;;;5134517;27;20066;-83
2021/04/26 10:20:33;;;;;;;1.48;0.90;;;;;;;;;;5117754;27;20027;-83
2021/04/26 10:22:59;;;;;;;2.05;1.00;;;;;;;;;;5135870;27;20035;-83
2021/04/26 10:25:38;;;;;;;1.60;0.88;;;;;;;;;;5134368;27;20039;-83
2021/04/26 10:28:23;;;;;;;2.35;1.13;;;;;;;;;;5113281;27;20051;-82
2021/04/26 10:31:04;;;;;;;4.00;1.20;;;;;;;;;;5135554;27;20042;-82
2021/04/26 10:34:03;;;;;;;2.30;1.10;;;;;;;;;;5134541;27;20440;-83
2021/04/26 10:36:41;;;;;;;3.03;1.30;;;;;;;;;;5135174;27;20062;-82
2021/04/26 10:39:08;;;;;;;3.58;1.50;;;;;;;;;;5135334;27;20046;-83
2021/04/26 10:41:50;;;;;;;2.63;1.25;;;;;;;;;;5134226;27;20039;-82
2021/04/26 10:44:16;;;;;;;2.55;1.17;;;;;;;;;;5135052;27;20043;-82
2021/04/26 10:46:42;;;;;;;1.35;1.10;;;;;;;;;;5133871;27;20100;-82
2021/04/26 10:49:08;;;;;;;2.65;1.05;;;;;;;;;;5135243;27;20035;-82
2021/04/26 10:51:35;;;;;;;3.28;1.30;;;;;;;;;;5135161;27;20412;-83
2021/04/26 10:54:01;;;;;;;3.10;1.30;;;;;;;;;;5134403;27;20390;-83
2021/04/26 10:56:28;;;;;;;1.88;1.40;;;;;;;;;;5116482;27;20039;-82
2021/04/26 10:59:12;;;;;;;2.13;1.17;;;;;;;;;;5116593;27;20039;-82
2021/04/26 11:01:45;;;;;;;1.75;1.20;;;;;;;;;;5134969;27;20039;-82
2021/04/26 11:04:11;;;;;;;3.63;1.55;;;;;;;;;;5133707;27;20035;-83
2021/04/26 11:06:37;;;;;;;3.00;1.30;;;;;;;;;;5134937;27;20075;-84
2021/04/26 11:09:09;;;;;;;2.72;1.60;;;;;;;;;;5133599;27;20039;-83
2021/04/26 11:11:41;;;;;;;3.67;1.58;;;;;;;;;;5117571;27;20058;-82
2021/04/26 11:14:07;;;;;;;;;;;;;;;;;;5118009;27;20092;-82
2021/04/26 11:16:40;;;;;;;1.73;1.17;;;;;;;;;;5133079;27;19915;-83
2021/04/26 11:19:10;;;;;;;1.88;1.20;;;;;;;;;;5133376;27;20084;-83
2021/04/26 11:21:42;;;;;;;8.43;1.55;;;;;;;;;;5116822;27;20031;-83
2021/04/26 11:24:12;;;;;;;2.28;1.23;;;;;;;;;;5133381;27;20546;-82
2021/04/26 11:26:38;;;;;;;2.35;1.30;;;;;;;;;;5134489;27;20493;-83
2021/04/26 11:29:11;;;;;;;3.33;1.38;;;;;;;;;;5133350;27;20386;-81
2021/04/26 11:31:57;;;;;;;3.97;1.50;;;;;;;;;;5133387;27;20043;-83
2021/04/26 11:34:24;;;;;;;2.42;1.50;;;;;;;;;;5134415;27;20043;-83
2021/04/26 11:37:02;;;;;;;3.13;1.33;;;;;;;;;;5134277;27;20092;-82
2021/04/26 11:39:29;;;;;;;4.47;1.33;;;;;;;;;;5134461;27;20100;-83
2021/04/26 11:41:55;;;;;;;4.05;1.48;;;;;;;;;;5133187;27;20501;-82
2021/04/26 11:44:27;;;;;;;3.88;1.60;;;;;;;;;;5132983;27;20031;-82
2021/04/26 11:46:54;;;;;;;2.50;1.27;;;;;;;;;;5134158;27;20045;-82
2021/04/26 11:49:23;;;;;;;3.13;1.58;;;;;;;;;;5133158;27;20031;-82
2021/04/26 11:51:50;;;;;;;3.58;1.65;;;;;;;;;;5132918;27;20035;-82
2021/04/26 11:54:17;;;;;;;4.82;1.70;;;;;;;;;;5134066;27;20035;-82
2021/04/26 11:56:46;;;;;;;3.00;1.58;;;;;;;;;;5134003;27;20035;-82
2021/04/26 11:59:12;;;;;;;1.95;1.48;;;;;;;;;;5132663;27;20035;-82
2021/04/26 12:01:53;;;;;;;5.10;1.30;;;;;;;;;;5132792;27;20114;-82
2021/04/26 12:04:32;;;;;;;5.20;1.65;;;;;;;;;;5132952;27;20031;-84
2021/04/26 12:06:58;;;;;;;3.85;1.50;;;;;;;;;;5115595;27;20402;-82
2021/04/26 12:09:24;;;;;;;3.05;1.80;;;;;;;;;;5132621;27;20076;-81
2021/04/26 12:11:57;;;;;;;10.88;3.17;;;;;;;;;;5133770;27;20035;-82
2021/04/26 12:14:23;;;;;;;4.43;1.50;;;;;;;;;;5115461;27;20039;-82
2021/04/26 12:16:49;;;;;;;4.25;1.52;;;;;;;;;;5132379;27;20493;-85
2021/04/26 12:19:15;;;;;;;5.60;2.10;;;;;;;;;;5132442;27;20057;-82
2021/04/26 12:21:41;;;;;;;4.80;1.50;;;;;;;;;;5133679;27;20062;-82
2021/04/26 12:24:10;;;;;;;4.90;1.70;;;;;;;;;;5132233;27;20082;-81
2021/04/26 12:26:36;;;;;;;5.03;1.25;;;;;;;;;;5132340;27;20103;-83
2021/04/26 12:29:03;;;;;;;5.05;1.30;;;;;;;;;;5132469;27;20039;-84
2021/04/26 12:31:31;;;;;;;2.78;1.60;;;;;;;;;;5133545;27;20541;-83
2021/04/26 12:34:07;;;;;;;4.63;1.67;;;;;;;;;;5133427;27;20081;-82
2021/04/26 12:36:33;;;;;;;1.95;1.10;;;;;;;;;;5131883;27;20049;-82
2021/04/26 12:38:59;;;;;;;3.95;1.30;;;;;;;;;;5132201;27;20070;-82
2021/04/26 12:41:25;;;;;;;4.22;1.60;;;;;;;;;;5111527;27;20533;-82
2021/04/26 12:43:53;;;;;;;4.95;1.65;;;;;;;;;;5130280;27;20042;-82
2021/04/26 12:46:19;;;;;;;3.72;1.40;;;;;;;;;;5131116;27;20035;-82
2021/04/26 12:48:45;;;;;;;3.42;1.65;;;;;;;;;;5114545;27;20043;-84
2021/04/26 12:51:11;;;;;;;3.60;1.48;;;;;;;;;;5114720;27;20035;-81
2021/04/26 12:53:41;;;;;;;3.67;1.15;;;;;;;;;;5131629;27;20074;-82
2021/04/26 12:56:14;;;;;;;4.90;1.58;;;;;;;;;;5131567;27;20035;-81
2021/04/26 12:58:40;;;;;;;4.53;2.25;;;;;;;;;;5131799;28;20445;-80
2021/04/26 13:01:12;;;;;;;3.65;1.42;;;;;;;;;;5133091;27;20062;-82
2021/04/26 13:03:53;;;;;;;3.45;1.70;;;;;;;;;;5132755;27;20039;-81
2021/04/26 13:06:20;;;;;;;2.80;1.40;;;;;;;;;;5132933;27;20031;-81
2021/04/26 13:08:51;;;;;;;6.15;2.67;;;;;;;;;;5131679;28;20039;-82
2021/04/26 13:11:36;;;;;;;5.28;1.70;;;;;;;;;;5131841;28;20043;-82
2021/04/26 13:14:10;;;;;;;4.88;1.77;;;;;;;;;;5132831;27;20043;-82
2021/04/26 13:16:37;;;;;;;5.43;1.88;;;;;;;;;;5133409;27;20080;-84
2021/04/26 13:19:06;;;;;;;2.97;1.42;;;;;;;;;;5135637;27;20035;-84
2021/04/26 13:21:33;;;;;;;2.63;1.52;;;;;;;;;;5136049;27;20031;-83
2021/04/26 13:24:09;;;;;;;3.35;1.52;;;;;;;;;;5135767;27;20047;-83
2021/04/26 13:26:36;;;;;;;2.72;1.38;;;;;;;;;;5118746;27;20486;-83
2021/04/26 13:29:28;;;;;;;3.75;1.52;;;;;;;;;;5136908;27;20069;-84
2021/04/26 13:31:55;;;;;;;4.28;1.40;;;;;;;;;;5134637;27;20047;-82
2021/04/26 13:34:21;;;;;;;3.08;1.40;;;;;;;;;;5134371;27;20038;-82
2021/04/26 13:36:49;;;;;;;3.58;1.40;;;;;;;;;;5135216;27;20055;-82
2021/04/26 13:39:15;;;;;;;3.28;1.65;;;;;;;;;;5135399;27;20063;-83
2021/04/26 13:41:41;;;;;;;1.95;1.30;;;;;;;;;;5101389;27;20126;-82
2021/04/26 13:44:08;;;;;;;2.47;1.38;;;;;;;;;;5135566;27;20332;-82
2021/04/26 13:46:34;;;;;;;1.73;1.40;;;;;;;;;;5136763;27;20380;-83
2021/04/26 13:49:00;;;;;;;3.78;1.60;;;;;;;;;;5135390;27;20451;-83
2021/04/26 13:51:29;;;;;;;5.90;1.77;;;;;;;;;;5118548;27;20470;-83
2021/04/26 13:53:55;;;;;;;2.95;1.50;;;;;;;;;;5136421;27;20497;-82
2021/04/26 13:56:21;;;;;;;3.28;1.20;;;;;;;;;;5118557;27;20140;-82
2021/04/26 13:58:47;;;;;;;8.25;1.65;;;;;;;;;;5135118;27;20043;-82
2021/04/26 14:01:13;;;;;;;4.32;1.30;;;;;;;;;;5135103;27;20107;-82
2021/04/26 14:03:40;;;;;;;2.42;1.20;;;;;;;;;;5118007;27;20088;-82
2021/04/26 14:06:06;;;;;;;3.03;1.35;;;;;;;;;;5134942;27;20061;-82
2021/04/26 14:08:32;;;;;;;3.90;1.20;;;;;;;;;;5136329;27;20494;-82
2021/04/26 14:10:58;;;;;;;4.53;1.17;;;;;;;;;;5134962;27;20031;-81
2021/04/26 14:13:24;;;;;;;3.20;1.20;;;;;;;;;;5136100;27;20453;-81
2021/04/26 14:15:50;;;;;;;1.98;1.20;;;;;;;;;;5135962;27;20039;-82
2021/04/26 14:18:17;;;;;;;3.42;1.25;;;;;;;;;;5134868;27;20115;-84
2021/04/26 14:20:43;;;;;;;4.45;1.20;;;;;;;;;;5117813;27;20084;-84
2021/04/26 14:23:11;;;;;;;3.15;1.40;;;;;;;;;;5134682;27;20039;-83
2021/04/26 14:25:37;;;;;;;4.80;1.30;;;;;;;;;;5134697;27;20043;-84
2021/04/26 14:28:04;;;;;;;3.45;1.45;;;;;;;;;;5134753;27;20035;-84
2021/04/26 14:30:30;;;;;;;2.47;1.20;;;;;;;;;;5134499;27;20027;-84
2021/04/26 14:32:56;;;;;;;2.67;1.50;;;;;;;;;;5134326;27;20039;-84
2021/04/26 14:35:22;;;;;;;4.85;1.40;;;;;;;;;;5134359;27;20038;-86
2021/04/26 14:37:50;;;;;;;3.05;1.40;;;;;;;;;;5117380;27;20058;-84
2021/04/26 14:40:16;;;;;;;5.30;1.30;;;;;;;;;;5135576;27;20031;-84
2021/04/26 14:42:42;;;;;;;4.07;1.40;;;;;;;;;;5117146;27;20035;-88
2021/04/26 14:45:08;;;;;;;3.75;1.40;;;;;;;;;;5134745;27;20073;-86
2021/04/26 14:47:34;;;;;;;4.57;1.20;;;;;;;;;;5134249;27;20041;-84